地図

経路データ

SID SEASON NUMBER BASIN SUBBASIN NAME ISO_TIME NATURE LAT LON WMO_WIND WMO_PRES WMO_AGENCY TRACK_TYPE DIST2LAND LANDFALL IFLAG USA_AGENCY USA_ATCF_ID USA_LAT USA_LON USA_RECORD USA_STATUS USA_WIND USA_PRES USA_SSHS USA_R34_NE USA_R34_SE USA_R34_SW USA_R34_NW USA_R50_NE USA_R50_SE USA_R50_SW USA_R50_NW USA_R64_NE USA_R64_SE USA_R64_SW USA_R64_NW USA_POCI USA_ROCI USA_RMW USA_EYE TOKYO_LAT TOKYO_LON TOKYO_GRADE TOKYO_WIND TOKYO_PRES TOKYO_R50_DIR TOKYO_R50_LONG TOKYO_R50_SHORT TOKYO_R30_DIR TOKYO_R30_LONG TOKYO_R30_SHORT TOKYO_LAND CMA_LAT CMA_LON CMA_CAT CMA_WIND CMA_PRES HKO_LAT HKO_LON HKO_CAT HKO_WIND HKO_PRES NEWDELHI_LAT NEWDELHI_LON NEWDELHI_GRADE NEWDELHI_WIND NEWDELHI_PRES NEWDELHI_CI NEWDELHI_DP NEWDELHI_POCI REUNION_LAT REUNION_LON REUNION_TYPE REUNION_WIND REUNION_PRES REUNION_TNUM REUNION_CI REUNION_RMW REUNION_R34_NE REUNION_R34_SE REUNION_R34_SW REUNION_R34_NW REUNION_R50_NE REUNION_R50_SE REUNION_R50_SW REUNION_R50_NW REUNION_R64_NE REUNION_R64_SE REUNION_R64_SW REUNION_R64_NW BOM_LAT BOM_LON BOM_TYPE BOM_WIND BOM_PRES BOM_TNUM BOM_CI BOM_RMW BOM_R34_NE BOM_R34_SE BOM_R34_SW BOM_R34_NW BOM_R50_NE BOM_R50_SE BOM_R50_SW BOM_R50_NW BOM_R64_NE BOM_R64_SE BOM_R64_SW BOM_R64_NW BOM_ROCI BOM_POCI BOM_EYE BOM_POS_METHOD BOM_PRES_METHOD NADI_LAT NADI_LON NADI_CAT NADI_WIND NADI_PRES WELLINGTON_LAT WELLINGTON_LON WELLINGTON_WIND WELLINGTON_PRES DS824_LAT DS824_LON DS824_STAGE DS824_WIND DS824_PRES TD9636_LAT TD9636_LON TD9636_STAGE TD9636_WIND TD9636_PRES TD9635_LAT TD9635_LON TD9635_WIND TD9635_PRES TD9635_ROCI NEUMANN_LAT NEUMANN_LON NEUMANN_CLASS NEUMANN_WIND NEUMANN_PRES MLC_LAT MLC_LON MLC_CLASS MLC_WIND MLC_PRES USA_GUST BOM_GUST BOM_GUST_PER REUNION_GUST REUNION_GUST_PER USA_SEAHGT USA_SEARAD_NE USA_SEARAD_SE USA_SEARAD_SW USA_SEARAD_NW STORM_SPEED STORM_DIR
1961249N14342 1961 88 NA NA DEBBIE 1961-09-05 12:00:00 TS 13.5000 -17.7000 30 hurdat_atl main 99 99 O_____________ hurdat_atl AL041961 13.5000 -17.7000 TD 30 -1 17 291
1961249N14342 1961 88 NA NA DEBBIE 1961-09-05 15:00:00 TS 13.8056 -18.5171 main 147 147 P_____________ AL041961 13.8056 -18.5171 TD 30 -1 17 291
1961249N14342 1961 88 NA NA DEBBIE 1961-09-05 18:00:00 TS 14.1000 -19.3000 30 hurdat_atl main 205 205 O_____________ hurdat_atl AL041961 14.1000 -19.3000 TD 30 -1 16 291
1961249N14342 1961 88 NA NA DEBBIE 1961-09-05 21:00:00 TS 14.3722 -20.0226 main 271 271 P_____________ AL041961 14.3722 -20.0226 TD 30 -1 14 290
1961249N14342 1961 88 NA NA DEBBIE 1961-09-06 00:00:00 TS 14.6000 -20.7000 30 hurdat_atl main 344 344 O_____________ hurdat_atl AL041961 14.6000 -20.7000 TD 30 -1 14 287
1961249N14342 1961 88 NA NA DEBBIE 1961-09-06 03:00:00 TS 14.7798 -21.3651 main 419 419 P_____________ AL041961 14.7798 -21.3651 TD 32 -1 13 283
1961249N14342 1961 88 NA NA DEBBIE 1961-09-06 06:00:00 TS 14.9000 -22.0000 35 hurdat_atl main 484 484 O_____________ hurdat_atl AL041961 14.9000 -22.0000 TS 35 0 12 279
1961249N14342 1961 88 NA NA DEBBIE 1961-09-06 09:00:00 TS 14.9754 -22.6061 main 549 549 P_____________ AL041961 14.9754 -22.6061 TS 37 0 12 275
1961249N14342 1961 88 NA NA DEBBIE 1961-09-06 12:00:00 TS 15.0000 -23.2000 40 hurdat_atl main 613 613 O_____________ hurdat_atl AL041961 15.0000 -23.2000 TS 40 0 12 272
1961249N14342 1961 88 NA NA DEBBIE 1961-09-06 13:00:00 TS 15.0000 -23.4000 40 hurdat_atl main 635 635 O_____________ hurdat_atl AL041961 15.0000 -23.4000 L TS 40 0 12 273
1961249N14342 1961 88 NA NA DEBBIE 1961-09-06 15:00:00 TS 15.0265 -23.8000 main 678 678 P_____________ AL041961 15.0265 -23.8000 TS 44 0 12 276
1961249N14342 1961 88 NA NA DEBBIE 1961-09-06 18:00:00 TS 15.1000 -24.4000 50 hurdat_atl main 743 743 O_____________ hurdat_atl AL041961 15.1000 -24.4000 TS 50 0 12 276
1961249N14342 1961 88 NA NA DEBBIE 1961-09-06 21:00:00 TS 15.1442 -25.0001 main 807 807 P_____________ AL041961 15.1442 -25.0001 TS 57 0 12 275
1961249N14342 1961 88 NA NA DEBBIE 1961-09-07 00:00:00 TS 15.2000 -25.6000 65 hurdat_atl main 872 872 O_____________ hurdat_atl AL041961 15.2000 -25.6000 HU 65 1 12 277
1961249N14342 1961 88 NA NA DEBBIE 1961-09-07 03:00:00 TS 15.2848 -26.1926 main 937 937 P_____________ AL041961 15.2848 -26.1926 HU 67 1 12 280
1961249N14342 1961 88 NA NA DEBBIE 1961-09-07 06:00:00 TS 15.4000 -26.8000 70 hurdat_atl main 1002 1002 O_____________ hurdat_atl AL041961 15.4000 -26.8000 HU 70 1 12 282
1961249N14342 1961 88 NA NA DEBBIE 1961-09-07 09:00:00 TS 15.5349 -27.4426 main 1066 1066 P_____________ AL041961 15.5349 -27.4426 HU 70 1 13 283
1961249N14342 1961 88 NA NA DEBBIE 1961-09-07 12:00:00 TS 15.7000 -28.1000 70 hurdat_atl main 1143 1143 O_____________ hurdat_atl AL041961 15.7000 -28.1000 HU 70 1 13 286
1961249N14342 1961 88 NA NA DEBBIE 1961-09-07 15:00:00 TS 15.8923 -28.7501 main 1219 1219 P_____________ AL041961 15.8923 -28.7501 HU 70 1 13 288
1961249N14342 1961 88 NA NA DEBBIE 1961-09-07 18:00:00 TS 16.1000 -29.4000 70 hurdat_atl main 1285 1285 O_____________ hurdat_atl AL041961 16.1000 -29.4000 HU 70 1 13 288
1961249N14342 1961 88 NA NA DEBBIE 1961-09-07 21:00:00 TS 16.2923 -30.0502 main 1362 1362 P_____________ AL041961 16.2923 -30.0502 HU 70 1 13 288
1961249N14342 1961 88 NA NA DEBBIE 1961-09-08 00:00:00 TS 16.5000 -30.7000 70 hurdat_atl main 1428 1428 O_____________ hurdat_atl AL041961 16.5000 -30.7000 HU 70 1 13 290
1961249N14342 1961 88 NA NA DEBBIE 1961-09-08 03:00:00 TS 16.7424 -31.3576 main 1504 1504 P_____________ AL041961 16.7424 -31.3576 HU 70 1 13 292
1961249N14342 1961 88 NA NA DEBBIE 1961-09-08 06:00:00 TS 17.0000 -32.0000 70 hurdat_atl main 1572 1572 O_____________ hurdat_atl AL041961 17.0000 -32.0000 HU 70 1 13 293
1961249N14342 1961 88 NA NA DEBBIE 1961-09-08 09:00:00 TS 17.2497 -32.6002 main 1638 1638 P_____________ AL041961 17.2497 -32.6002 HU 70 1 13 294
1961249N14342 1961 88 NA NA DEBBIE 1961-09-08 12:00:00 TS 17.5000 -33.2000 70 hurdat_atl main 1706 1706 O_____________ hurdat_atl AL041961 17.5000 -33.2000 HU 70 1 13 293
1961249N14342 1961 88 NA NA DEBBIE 1961-09-08 15:00:00 TS 17.7499 -33.8501 main 1782 1782 P_____________ AL041961 17.7499 -33.8501 HU 70 1 13 292
1961249N14342 1961 88 NA NA DEBBIE 1961-09-08 18:00:00 TS 18.0000 -34.5000 70 hurdat_atl main 1850 1850 O_____________ hurdat_atl AL041961 18.0000 -34.5000 HU 70 1 13 292
1961249N14342 1961 88 NA NA DEBBIE 1961-09-08 21:00:00 TS 18.2422 -35.1003 main 1907 1905 P_____________ AL041961 18.2422 -35.1003 HU 70 1 12 294
1961249N14342 1961 88 NA NA DEBBIE 1961-09-09 00:00:00 TS 18.5000 -35.7000 70 hurdat_atl main 1963 1963 O_____________ hurdat_atl AL041961 18.5000 -35.7000 HU 70 1 13 295
1961249N14342 1961 88 NA NA DEBBIE 1961-09-09 03:00:00 TS 18.7924 -36.3501 main 2030 2030 P_____________ AL041961 18.7924 -36.3501 HU 70 1 14 296
1961249N14342 1961 88 NA NA DEBBIE 1961-09-09 06:00:00 TS 19.1000 -37.0000 70 hurdat_atl main 2087 2087 O_____________ hurdat_atl AL041961 19.1000 -37.0000 HU 70 1 13 297
1961249N14342 1961 88 NA NA DEBBIE 1961-09-09 09:00:00 TS 19.3922 -37.6078 main 2144 2144 P_____________ AL041961 19.3922 -37.6078 HU 70 1 13 298
1961249N14342 1961 88 NA NA DEBBIE 1961-09-09 12:00:00 TS 19.7000 -38.2000 70 hurdat_atl main 2202 2202 O_____________ hurdat_atl AL041961 19.7000 -38.2000 HU 70 1 13 300
1961249N14342 1961 88 NA NA DEBBIE 1961-09-09 15:00:00 TS 20.0348 -38.8003 main 2219 2213 P_____________ AL041961 20.0348 -38.8003 HU 70 1 13 302
1961249N14342 1961 88 NA NA DEBBIE 1961-09-09 18:00:00 TS 20.4000 -39.4000 70 hurdat_atl main 2215 2208 O_____________ hurdat_atl AL041961 20.4000 -39.4000 HU 70 1 14 304
1961249N14342 1961 88 NA NA DEBBIE 1961-09-09 21:00:00 TS 20.7923 -40.0002 main 2214 2205 P_____________ AL041961 20.7923 -40.0002 HU 70 1 14 305
1961249N14342 1961 88 NA NA DEBBIE 1961-09-10 00:00:00 TS 21.2000 -40.6000 70 hurdat_atl main 2210 2203 O_____________ hurdat_atl AL041961 21.2000 -40.6000 HU 70 1 14 306
1961249N14342 1961 88 NA NA DEBBIE 1961-09-10 03:00:00 TS 21.5998 -41.2003 main 2209 2203 P_____________ AL041961 21.5998 -41.2003 HU 70 1 14 306
1961249N14342 1961 88 NA NA DEBBIE 1961-09-10 06:00:00 TS 22.0000 -41.8000 70 hurdat_atl main 2211 2205 O_____________ hurdat_atl AL041961 22.0000 -41.8000 HU 70 1 14 305
1961249N14342 1961 88 NA NA DEBBIE 1961-09-10 09:00:00 TS 22.3849 -42.4080 main 2215 2210 P_____________ AL041961 22.3849 -42.4080 HU 72 1 14 306
1961249N14342 1961 88 NA NA DEBBIE 1961-09-10 12:00:00 TS 22.8000 -43.0000 75 hurdat_atl main 2223 2218 O_____________ hurdat_atl AL041961 22.8000 -43.0000 HU 75 1 14 309
1961249N14342 1961 88 NA NA DEBBIE 1961-09-10 15:00:00 TS 23.2699 -43.5728 main 2243 2243 P_____________ AL041961 23.2699 -43.5728 HU 75 1 14 315
1961249N14342 1961 88 NA NA DEBBIE 1961-09-10 18:00:00 TS 23.8000 -44.1000 75 hurdat_atl main 2270 2269 O_____________ hurdat_atl AL041961 23.8000 -44.1000 HU 75 1 14 320
1961249N14342 1961 88 NA NA DEBBIE 1961-09-10 21:00:00 TS 24.3624 -44.5804 main 2271 2245 P_____________ AL041961 24.3624 -44.5804 HU 75 1 15 326
1961249N14342 1961 88 NA NA DEBBIE 1961-09-11 00:00:00 TS 25.0000 -45.0000 75 hurdat_atl main 2248 2231 O_____________ hurdat_atl AL041961 25.0000 -45.0000 HU 75 1 16 332
1961249N14342 1961 88 NA NA DEBBIE 1961-09-11 03:00:00 TS 25.7350 -45.3948 main 2232 2226 P_____________ AL041961 25.7350 -45.3948 HU 75 1 16 337
1961249N14342 1961 88 NA NA DEBBIE 1961-09-11 06:00:00 TS 26.5000 -45.7000 75 hurdat_atl main 2232 2230 O_____________ hurdat_atl AL041961 26.5000 -45.7000 HU 75 1 16 343
1961249N14342 1961 88 NA NA DEBBIE 1961-09-11 09:00:00 TS 27.2149 -45.8955 main 2241 2175 P_____________ AL041961 27.2149 -45.8955 HU 77 1 14 349
1961249N14342 1961 88 NA NA DEBBIE 1961-09-11 12:00:00 TS 27.9000 -46.0000 80 hurdat_atl main 2175 2107 O_____________ hurdat_atl AL041961 27.9000 -46.0000 HU 80 1 14 353
1961249N14342 1961 88 NA NA DEBBIE 1961-09-11 15:00:00 TS 28.5650 -46.0727 main 2097 2032 P_____________ AL041961 28.5650 -46.0727 HU 80 1 13 356
1961249N14342 1961 88 NA NA DEBBIE 1961-09-11 18:00:00 TS 29.2000 -46.1000 80 976 hurdat_atl main 2032 1968 O_____________ hurdat_atl AL041961 29.2000 -46.1000 HU 80 976 1 13 358
1961249N14342 1961 88 NA NA DEBBIE 1961-09-11 21:00:00 TS 29.8150 -46.1150 main 1968 1903 P_____________ AL041961 29.8150 -46.1150 HU 80 1 12 1
1961249N14342 1961 88 NA NA DEBBIE 1961-09-12 00:00:00 TS 30.4000 -46.1000 80 hurdat_atl main 1903 1850 O_____________ hurdat_atl AL041961 30.4000 -46.1000 HU 80 1 12 2
1961249N14342 1961 88 NA NA DEBBIE 1961-09-12 03:00:00 TS 30.9800 -46.0650 main 1839 1789 P_____________ AL041961 30.9800 -46.0650 HU 80 1 11 5
1961249N14342 1961 88 NA NA DEBBIE 1961-09-12 06:00:00 TS 31.5000 -46.0000 80 hurdat_atl main 1789 1750 O_____________ hurdat_atl AL041961 31.5000 -46.0000 HU 80 1 10 8
1961249N14342 1961 88 NA NA DEBBIE 1961-09-12 09:00:00 TS 31.9225 -45.9075 main 1750 1711 P_____________ AL041961 31.9225 -45.9075 HU 80 1 8 12
1961249N14342 1961 88 NA NA DEBBIE 1961-09-12 12:00:00 TS 32.3000 -45.8000 80 975 hurdat_atl main 1711 1672 O_____________ hurdat_atl AL041961 32.3000 -45.8000 HU 80 975 1 8 13
1961249N14342 1961 88 NA NA DEBBIE 1961-09-12 15:00:00 TS 32.7000 -45.6999 main 1672 1633 P_____________ AL041961 32.7000 -45.6999 HU 77 1 8 12
1961249N14342 1961 88 NA NA DEBBIE 1961-09-12 18:00:00 TS 33.1000 -45.6000 75 hurdat_atl main 1633 1595 O_____________ hurdat_atl AL041961 33.1000 -45.6000 HU 75 1 8 11
1961249N14342 1961 88 NA NA DEBBIE 1961-09-12 21:00:00 TS 33.5074 -45.5147 main 1595 1557 P_____________ AL041961 33.5074 -45.5147 HU 75 1 8 12
1961249N14342 1961 88 NA NA DEBBIE 1961-09-13 00:00:00 TS 33.9000 -45.4000 75 hurdat_atl main 1557 1520 O_____________ hurdat_atl AL041961 33.9000 -45.4000 HU 75 1 8 16
1961249N14342 1961 88 NA NA DEBBIE 1961-09-13 03:00:00 TS 34.2723 -45.2448 main 1524 1501 P_____________ AL041961 34.2723 -45.2448 HU 72 1 8 25
1961249N14342 1961 88 NA NA DEBBIE 1961-09-13 06:00:00 TS 34.6000 -45.0000 70 980 hurdat_atl main 1501 1482 O_____________ hurdat_atl AL041961 34.6000 -45.0000 HU 70 980 1 8 39
1961249N14342 1961 88 NA NA DEBBIE 1961-09-13 09:00:00 TS 34.8723 -44.6598 main 1482 1478 P_____________ AL041961 34.8723 -44.6598 HU 70 1 8 53
1961249N14342 1961 88 NA NA DEBBIE 1961-09-13 12:00:00 TS 35.1000 -44.2000 70 hurdat_atl main 1483 1477 O_____________ hurdat_atl AL041961 35.1000 -44.2000 HU 70 1 9 62
1961249N14342 1961 88 NA NA DEBBIE 1961-09-13 15:00:00 TS 35.3070 -43.6670 main 1485 1484 P_____________ AL041961 35.3070 -43.6670 HU 70 1 11 68
1961249N14342 1961 88 NA NA DEBBIE 1961-09-13 18:00:00 TS 35.5000 -43.0000 70 hurdat_atl main 1497 1497 O_____________ hurdat_atl AL041961 35.5000 -43.0000 HU 70 1 13 71
1961249N14342 1961 88 NA NA DEBBIE 1961-09-13 21:00:00 TS 35.7073 -42.2025 main 1517 1517 P_____________ AL041961 35.7073 -42.2025 HU 70 1 14 74
1961249N14342 1961 88 NA NA DEBBIE 1961-09-14 00:00:00 TS 35.9000 -41.3000 70 hurdat_atl main 1545 1545 O_____________ hurdat_atl AL041961 35.9000 -41.3000 HU 70 1 15 77
1961249N14342 1961 88 NA NA DEBBIE 1961-09-14 03:00:00 TS 36.0561 -40.4017 main 1576 1576 P_____________ AL041961 36.0561 -40.4017 HU 70 1 16 79
1961249N14342 1961 88 NA NA DEBBIE 1961-09-14 06:00:00 TS 36.2000 -39.4000 70 hurdat_atl main 1624 1624 O_____________ hurdat_atl AL041961 36.2000 -39.4000 HU 70 1 18 81
1961249N14342 1961 88 NA NA DEBBIE 1961-09-14 09:00:00 TS 36.3344 -38.2513 main 1681 1681 P_____________ AL041961 36.3344 -38.2513 HU 70 1 20 81
1961249N14342 1961 88 NA NA DEBBIE 1961-09-14 12:00:00 TS 36.5000 -37.0000 70 hurdat_atl main 1745 1745 O_____________ hurdat_atl AL041961 36.5000 -37.0000 HU 70 1 20 79
1961249N14342 1961 88 NA NA DEBBIE 1961-09-14 15:00:00 TS 36.7095 -35.7728 main 1805 1805 P_____________ AL041961 36.7095 -35.7728 HU 70 1 21 77
1961249N14342 1961 88 NA NA DEBBIE 1961-09-14 18:00:00 TS 37.0000 -34.4000 70 hurdat_atl main 1874 1802 O_____________ hurdat_atl AL041961 37.0000 -34.4000 HU 70 1 24 76
1961249N14342 1961 88 NA NA DEBBIE 1961-09-14 21:00:00 TS 37.3059 -32.8423 main 1794 1696 P_____________ AL041961 37.3059 -32.8423 HU 70 1 28 74
1961249N14342 1961 88 NA NA DEBBIE 1961-09-15 00:00:00 ET 37.8000 -31.0000 70 hurdat_atl main 1689 1594 O_____________ hurdat_atl AL041961 37.8000 -31.0000 EX 70 -4 34 69
1961249N14342 1961 88 NA NA DEBBIE 1961-09-15 03:00:00 ET 38.5475 -28.7599 main 1587 1462 P_____________ AL041961 38.5475 -28.7599 EX 70 -4 40 65
1961249N14342 1961 88 NA NA DEBBIE 1961-09-15 06:00:00 ET 39.5000 -26.4000 70 hurdat_atl main 1452 1279 O_____________ hurdat_atl AL041961 39.5000 -26.4000 EX 70 -4 40 61
1961249N14342 1961 88 NA NA DEBBIE 1961-09-15 09:00:00 ET 40.5056 -24.2463 main 1259 1074 P_____________ AL041961 40.5056 -24.2463 EX 70 -4 39 55
1961249N14342 1961 88 NA NA DEBBIE 1961-09-15 12:00:00 ET 41.7000 -22.2000 70 hurdat_atl main 1064 882 O_____________ hurdat_atl AL041961 41.7000 -22.2000 EX 70 -4 40 50
1961249N14342 1961 88 NA NA DEBBIE 1961-09-15 15:00:00 ET 43.0583 -20.1347 main 873 738 P_____________ AL041961 43.0583 -20.1347 EX 70 -4 41 45
1961249N14342 1961 88 NA NA DEBBIE 1961-09-15 18:00:00 ET 44.6000 -18.2000 70 hurdat_atl main 733 664 O_____________ hurdat_atl AL041961 44.6000 -18.2000 EX 70 -4 41 40
1961249N14342 1961 88 NA NA DEBBIE 1961-09-15 21:00:00 ET 46.2362 -16.4288 main 662 530 P_____________ AL041961 46.2362 -16.4288 EX 70 -4 41 35
1961249N14342 1961 88 NA NA DEBBIE 1961-09-16 00:00:00 ET 48.0000 -14.8000 70 hurdat_atl main 517 302 O_____________ hurdat_atl AL041961 48.0000 -14.8000 EX 70 -4 42 32
1961249N14342 1961 88 NA NA DEBBIE 1961-09-16 03:00:00 ET 49.7804 -13.1623 main 289 91 P_____________ AL041961 49.7804 -13.1623 EX 72 -4 42 29
1961249N14342 1961 88 NA NA DEBBIE 1961-09-16 06:00:00 ET 51.7000 -11.6000 75 hurdat_atl main 82 6 O_____________ hurdat_atl AL041961 51.7000 -11.6000 EX 75 -4 44 26
1961249N14342 1961 88 NA NA DEBBIE 1961-09-16 09:00:00 ET 53.7891 -10.0038 main 12 0 P_____________ AL041961 53.7891 -10.0038 EX 75 -4 47 23
1961249N14342 1961 88 NA NA DEBBIE 1961-09-16 12:00:00 ET 56.0000 -8.50000 75 961 hurdat_atl main 98 11 O_____________ hurdat_atl AL041961 56.0000 -8.50000 EX 75 961 -4 48 20
1961249N14342 1961 88 NA NA DEBBIE 1961-09-16 15:00:00 ET 58.3068 -7.11483 main 16 16 P_____________ AL041961 58.3068 -7.11483 EX 75 -4 47 17
1961249N14342 1961 88 NA NA DEBBIE 1961-09-16 18:00:00 ET 60.5000 -5.80000 75 hurdat_atl main 224 224 O_____________ hurdat_atl AL041961 60.5000 -5.80000 EX 75 -4 43 18
1961249N14342 1961 88 NA NA DEBBIE 1961-09-16 21:00:00 ET 62.4348 -4.41255 main 423 423 P_____________ AL041961 62.4348 -4.41255 EX 72 -4 37 20
1961249N14342 1961 88 NA NA DEBBIE 1961-09-17 00:00:00 ET 64.0000 -3.00000 70 hurdat_atl main 456 452 O_____________ hurdat_atl AL041961 64.0000 -3.00000 EX 70 -4 30 25
1961249N14342 1961 88 NA NA DEBBIE 1961-09-17 03:00:00 ET 65.1875 -1.43123 main 467 464 P_____________ AL041961 65.1875 -1.43123 EX 67 -4 24 32
1961249N14342 1961 88 NA NA DEBBIE 1961-09-17 06:00:00 ET 66.0000 -3.70681e-10 65 hurdat_atl main 477 474 O_____________ hurdat_atl AL041961 66.0000 -0.00000 EX 65 -4 17 34
1961249N14342 1961 88 NA NA DEBBIE 1961-09-17 09:00:00 ET 66.6061 0.946779 main 499 484 P_____________ AL041961 66.6061 0.946779 EX 60 -4 13 38
1961249N14342 1961 88 NA NA DEBBIE 1961-09-17 12:00:00 ET 67.0000 2.00000 55 hurdat_atl main 479 416 O_____________ hurdat_atl AL041961 67.0000 2.00000 EX 55 -4 13 58
1961249N14342 1961 88 NA NA DEBBIE 1961-09-17 15:00:00 ET 67.2832 3.71162 main 411 325 P_____________ AL041961 67.2832 3.71162 EX 50 -4 16 72
1961249N14342 1961 88 NA NA DEBBIE 1961-09-17 18:00:00 ET 67.5000 6.00000 45 hurdat_atl main 321 226 O_____________ hurdat_atl AL041961 67.5000 6.00000 EX 45 -4 20 77
1961249N14342 1961 88 NA NA DEBBIE 1961-09-17 21:00:00 ET 67.7521 8.85295 main 223 126 P_____________ AL041961 67.7521 8.85295 EX 42 -4 23 78
1961249N14342 1961 88 NA NA DEBBIE 1961-09-18 00:00:00 ET 68.0000 12.0000 40 hurdat_atl main 118 13 O_____________ hurdat_atl AL041961 68.0000 12.0000 EX 40 -4 23 78
1961249N14342 1961 88 NA NA DEBBIE 1961-09-18 03:00:00 ET 68.2405 14.9349 main 11 0 P_____________ AL041961 68.2405 14.9349 EX 37 -4 23 77
1961249N14342 1961 88 NA NA DEBBIE 1961-09-18 06:00:00 ET 68.5000 18.0000 35 hurdat_atl main 0 0 O_____________ hurdat_atl AL041961 68.5000 18.0000 EX 35 -4 24 78
1961249N14342 1961 88 NA NA DEBBIE 1961-09-18 09:00:00 ET 68.7427 21.3602 main 0 0 P_____________ AL041961 68.7427 21.3602 EX 35 -4 26 79
1961249N14342 1961 88 NA NA DEBBIE 1961-09-18 12:00:00 ET 69.0000 25.0000 35 hurdat_atl main 0 0 O_____________ hurdat_atl AL041961 69.0000 25.0000 EX 35 -4 27 79
1961249N14342 1961 88 NA NA DEBBIE 1961-09-18 15:00:00 ET 69.2700 28.9028 main 0 0 P_____________ AL041961 69.2700 28.9028 EX 32 -4 29 80
1961249N14342 1961 88 NI AS DEBBIE 1961-09-18 18:00:00 ET 69.5000 33.0000 main 11 O_____________ hurdat_atl AL041961 69.5000 33.0000 EX 30 -4 29 81

IBTrACS Databaseについて

本データベースは、米国NOAAが公開する1842年以降の世界の熱帯低気圧のベストトラックデータアーカイブInternational Best Track Archive for Climate Stewardship (IBTrACS)を、ウェブで閲覧しやすい形式に変換したものです。

最終更新日:2021-12-06